sensor_id;sensor_type;location;lat;lon;timestamp;temperature;humidity
65460;DHT22;52058;49.822;6.754;2023-04-25T00:00:49;8.73;97.86
65460;DHT22;52058;49.822;6.754;2023-04-25T00:03:17;8.72;97.74
65460;DHT22;52058;49.822;6.754;2023-04-25T00:05:44;8.65;97.82
65460;DHT22;52058;49.822;6.754;2023-04-25T00:08:11;8.71;98.16
65460;DHT22;52058;49.822;6.754;2023-04-25T00:10:39;8.72;97.87
65460;DHT22;52058;49.822;6.754;2023-04-25T00:13:06;8.73;98.05
65460;DHT22;52058;49.822;6.754;2023-04-25T00:15:33;8.73;97.97
65460;DHT22;52058;49.822;6.754;2023-04-25T00:18:01;8.72;97.36
65460;DHT22;52058;49.822;6.754;2023-04-25T00:20:27;8.58;97.58
65460;DHT22;52058;49.822;6.754;2023-04-25T00:22:55;8.58;97.54
65460;DHT22;52058;49.822;6.754;2023-04-25T00:25:21;8.66;98.29
65460;DHT22;52058;49.822;6.754;2023-04-25T00:27:50;8.58;97.72
65460;DHT22;52058;49.822;6.754;2023-04-25T00:30:16;8.61;97.93
65460;DHT22;52058;49.822;6.754;2023-04-25T00:32:43;8.59;97.57
65460;DHT22;52058;49.822;6.754;2023-04-25T00:35:09;8.58;97.64
65460;DHT22;52058;49.822;6.754;2023-04-25T00:37:36;8.61;97.97
65460;DHT22;52058;49.822;6.754;2023-04-25T00:40:05;8.58;98.62
65460;DHT22;52058;49.822;6.754;2023-04-25T00:42:33;8.55;98.10
65460;DHT22;52058;49.822;6.754;2023-04-25T00:45:05;8.56;97.94
65460;DHT22;52058;49.822;6.754;2023-04-25T00:47:33;8.51;98.22
65460;DHT22;52058;49.822;6.754;2023-04-25T00:49:59;8.53;98.53
65460;DHT22;52058;49.822;6.754;2023-04-25T00:52:27;8.52;98.46
65460;DHT22;52058;49.822;6.754;2023-04-25T00:54:54;8.49;98.34
65460;DHT22;52058;49.822;6.754;2023-04-25T00:57:20;8.49;98.37
65460;DHT22;52058;49.822;6.754;2023-04-25T00:59:47;8.46;98.43
65460;DHT22;52058;49.822;6.754;2023-04-25T01:02:18;8.37;98.72
65460;DHT22;52058;49.822;6.754;2023-04-25T01:04:46;8.35;98.35
65460;DHT22;52058;49.822;6.754;2023-04-25T01:07:14;8.35;98.71
65460;DHT22;52058;49.822;6.754;2023-04-25T01:09:41;8.35;98.24
65460;DHT22;52058;49.822;6.754;2023-04-25T01:12:08;8.37;98.62
65460;DHT22;52058;49.822;6.754;2023-04-25T01:14:34;8.37;98.57
65460;DHT22;52058;49.822;6.754;2023-04-25T01:17:01;8.34;98.82
65460;DHT22;52058;49.822;6.754;2023-04-25T01:19:29;8.32;99.57
65460;DHT22;52058;49.822;6.754;2023-04-25T01:21:58;8.31;99.64
65460;DHT22;52058;49.822;6.754;2023-04-25T01:24:25;8.41;99.33
65460;DHT22;52058;49.822;6.754;2023-04-25T01:26:52;8.42;98.77
65460;DHT22;52058;49.822;6.754;2023-04-25T01:29:22;8.49;99.22
65460;DHT22;52058;49.822;6.754;2023-04-25T01:31:49;8.45;98.39
65460;DHT22;52058;49.822;6.754;2023-04-25T01:34:20;8.41;98.86
65460;DHT22;52058;49.822;6.754;2023-04-25T01:36:49;8.28;98.90
65460;DHT22;52058;49.822;6.754;2023-04-25T01:39:17;8.22;99.63
65460;DHT22;52058;49.822;6.754;2023-04-25T01:41:44;8.08;99.75
65460;DHT22;52058;49.822;6.754;2023-04-25T01:44:11;8.03;99.99
65460;DHT22;52058;49.822;6.754;2023-04-25T01:46:38;7.91;99.99
65460;DHT22;52058;49.822;6.754;2023-04-25T01:49:04;7.83;99.99
65460;DHT22;52058;49.822;6.754;2023-04-25T01:51:31;7.77;99.99
65460;DHT22;52058;49.822;6.754;2023-04-25T01:53:58;7.72;99.99
65460;DHT22;52058;49.822;6.754;2023-04-25T01:56:30;7.65;99.99
65460;DHT22;52058;49.822;6.754;2023-04-25T01:58:57;7.59;99.99
65460;DHT22;52058;49.822;6.754;2023-04-25T02:01:23;7.51;99.99
65460;DHT22;52058;49.822;6.754;2023-04-25T02:03:50;7.45;99.99
65460;DHT22;52058;49.822;6.754;2023-04-25T02:06:17;7.45;99.99
65460;DHT22;52058;49.822;6.754;2023-04-25T02:08:43;7.48;99.99
65460;DHT22;52058;49.822;6.754;2023-04-25T02:11:10;7.55;99.99
65460;DHT22;52058;49.822;6.754;2023-04-25T02:13:38;7.55;99.99
65460;DHT22;52058;49.822;6.754;2023-04-25T02:16:05;7.55;99.99
65460;DHT22;52058;49.822;6.754;2023-04-25T02:18:35;7.58;99.99
65460;DHT22;52058;49.822;6.754;2023-04-25T02:21:02;7.63;99.99
65460;DHT22;52058;49.822;6.754;2023-04-25T02:23:29;7.67;99.99
65460;DHT22;52058;49.822;6.754;2023-04-25T02:25:56;7.70;99.99
65460;DHT22;52058;49.822;6.754;2023-04-25T02:28:23;7.72;99.99
65460;DHT22;52058;49.822;6.754;2023-04-25T02:30:51;7.73;99.99
65460;DHT22;52058;49.822;6.754;2023-04-25T02:33:18;7.82;99.99
65460;DHT22;52058;49.822;6.754;2023-04-25T02:35:46;7.84;99.99
65460;DHT22;52058;49.822;6.754;2023-04-25T02:38:12;7.82;99.99
65460;DHT22;52058;49.822;6.754;2023-04-25T02:40:40;7.82;99.99
65460;DHT22;52058;49.822;6.754;2023-04-25T02:43:07;7.80;99.99
65460;DHT22;52058;49.822;6.754;2023-04-25T02:45:33;7.79;99.99
65460;DHT22;52058;49.822;6.754;2023-04-25T02:48:02;7.80;99.99
65460;DHT22;52058;49.822;6.754;2023-04-25T02:50:28;7.80;99.99
65460;DHT22;52058;49.822;6.754;2023-04-25T02:52:55;7.84;99.99
65460;DHT22;52058;49.822;6.754;2023-04-25T02:55:22;7.90;99.99
65460;DHT22;52058;49.822;6.754;2023-04-25T02:57:49;7.89;99.99
65460;DHT22;52058;49.822;6.754;2023-04-25T03:00:16;7.90;99.99
65460;DHT22;52058;49.822;6.754;2023-04-25T03:02:43;7.86;99.99
65460;DHT22;52058;49.822;6.754;2023-04-25T03:05:11;7.89;99.99
65460;DHT22;52058;49.822;6.754;2023-04-25T03:07:38;7.87;99.99
65460;DHT22;52058;49.822;6.754;2023-04-25T03:10:06;7.90;99.99
65460;DHT22;52058;49.822;6.754;2023-04-25T03:12:33;7.87;99.99
65460;DHT22;52058;49.822;6.754;2023-04-25T03:15:00;7.91;99.99
65460;DHT22;52058;49.822;6.754;2023-04-25T03:17:26;7.91;99.99
65460;DHT22;52058;49.822;6.754;2023-04-25T03:19:53;7.87;99.99
65460;DHT22;52058;49.822;6.754;2023-04-25T03:22:21;7.94;99.99
65460;DHT22;52058;49.822;6.754;2023-04-25T03:24:48;7.93;99.99
65460;DHT22;52058;49.822;6.754;2023-04-25T03:27:14;7.97;99.99
65460;DHT22;52058;49.822;6.754;2023-04-25T03:29:41;7.94;99.99
65460;DHT22;52058;49.822;6.754;2023-04-25T03:32:08;8.03;99.99
65460;DHT22;52058;49.822;6.754;2023-04-25T03:34:35;8.00;99.99
65460;DHT22;52058;49.822;6.754;2023-04-25T03:37:01;8.03;99.99
65460;DHT22;52058;49.822;6.754;2023-04-25T03:39:29;8.08;99.99
65460;DHT22;52058;49.822;6.754;2023-04-25T03:41:56;8.13;99.99
65460;DHT22;52058;49.822;6.754;2023-04-25T03:44:22;8.17;99.99
65460;DHT22;52058;49.822;6.754;2023-04-25T03:46:50;8.22;99.99
65460;DHT22;52058;49.822;6.754;2023-04-25T03:49:17;8.20;99.66
65460;DHT22;52058;49.822;6.754;2023-04-25T03:51:43;8.11;99.52
65460;DHT22;52058;49.822;6.754;2023-04-25T03:54:10;8.15;99.99
65460;DHT22;52058;49.822;6.754;2023-04-25T03:56:38;8.18;99.85
65460;DHT22;52058;49.822;6.754;2023-04-25T03:59:05;8.21;99.01
65460;DHT22;52058;49.822;6.754;2023-04-25T04:01:31;8.21;98.69
65460;DHT22;52058;49.822;6.754;2023-04-25T04:03:58;8.22;98.88
65460;DHT22;52058;49.822;6.754;2023-04-25T04:06:25;8.30;99.45
65460;DHT22;52058;49.822;6.754;2023-04-25T04:08:51;8.25;99.37
65460;DHT22;52058;49.822;6.754;2023-04-25T04:11:19;8.21;99.99
65460;DHT22;52058;49.822;6.754;2023-04-25T04:13:47;8.20;99.99
65460;DHT22;52058;49.822;6.754;2023-04-25T04:16:13;8.22;99.99
65460;DHT22;52058;49.822;6.754;2023-04-25T04:18:40;8.21;99.93
65460;DHT22;52058;49.822;6.754;2023-04-25T04:21:07;8.21;99.99
65460;DHT22;52058;49.822;6.754;2023-04-25T04:23:33;8.20;99.83
65460;DHT22;52058;49.822;6.754;2023-04-25T04:26:00;8.21;99.99
65460;DHT22;52058;49.822;6.754;2023-04-25T04:28:30;8.20;99.99
65460;DHT22;52058;49.822;6.754;2023-04-25T04:30:58;8.15;99.99
65460;DHT22;52058;49.822;6.754;2023-04-25T04:33:26;8.18;99.90
65460;DHT22;52058;49.822;6.754;2023-04-25T04:35:53;8.15;99.96
65460;DHT22;52058;49.822;6.754;2023-04-25T04:38:20;8.18;99.91
65460;DHT22;52058;49.822;6.754;2023-04-25T04:40:47;8.27;99.99
65460;DHT22;52058;49.822;6.754;2023-04-25T04:43:17;8.22;99.36
65460;DHT22;52058;49.822;6.754;2023-04-25T04:45:48;8.18;98.91
65460;DHT22;52058;49.822;6.754;2023-04-25T04:48:17;8.17;99.84
65460;DHT22;52058;49.822;6.754;2023-04-25T04:50:44;8.21;98.96
65460;DHT22;52058;49.822;6.754;2023-04-25T04:53:11;8.11;97.94
65460;DHT22;52058;49.822;6.754;2023-04-25T04:55:38;8.14;99.34
65460;DHT22;52058;49.822;6.754;2023-04-25T04:58:06;8.18;98.94
65460;DHT22;52058;49.822;6.754;2023-04-25T05:00:33;8.05;98.73
65460;DHT22;52058;49.822;6.754;2023-04-25T05:02:59;8.17;98.94
65460;DHT22;52058;49.822;6.754;2023-04-25T05:05:27;8.18;99.11
65460;DHT22;52058;49.822;6.754;2023-04-25T05:07:54;8.22;99.24
65460;DHT22;52058;49.822;6.754;2023-04-25T05:10:20;8.21;98.78
65460;DHT22;52058;49.822;6.754;2023-04-25T05:12:47;8.18;99.18
65460;DHT22;52058;49.822;6.754;2023-04-25T05:15:14;8.27;99.40
65460;DHT22;52058;49.822;6.754;2023-04-25T05:17:40;8.28;98.77
65460;DHT22;52058;49.822;6.754;2023-04-25T05:20:08;8.27;98.85
65460;DHT22;52058;49.822;6.754;2023-04-25T05:22:36;8.31;97.64
65460;DHT22;52058;49.822;6.754;2023-04-25T05:25:03;8.30;97.91
65460;DHT22;52058;49.822;6.754;2023-04-25T05:27:29;8.34;97.96
65460;DHT22;52058;49.822;6.754;2023-04-25T05:29:56;8.41;98.49
65460;DHT22;52058;49.822;6.754;2023-04-25T05:32:23;8.48;98.46
65460;DHT22;52058;49.822;6.754;2023-04-25T05:34:50;8.49;98.03
65460;DHT22;52058;49.822;6.754;2023-04-25T05:37:16;8.65;97.85
65460;DHT22;52058;49.822;6.754;2023-04-25T05:39:44;8.69;97.88
65460;DHT22;52058;49.822;6.754;2023-04-25T05:42:12;8.69;98.26
65460;DHT22;52058;49.822;6.754;2023-04-25T05:44:39;8.73;96.65
65460;DHT22;52058;49.822;6.754;2023-04-25T05:47:05;8.89;96.42
65460;DHT22;52058;49.822;6.754;2023-04-25T05:49:32;8.93;96.44
65460;DHT22;52058;49.822;6.754;2023-04-25T05:51:58;8.94;96.05
65460;DHT22;52058;49.822;6.754;2023-04-25T05:54:25;8.96;96.35
65460;DHT22;52058;49.822;6.754;2023-04-25T05:56:53;8.94;96.69
65460;DHT22;52058;49.822;6.754;2023-04-25T05:59:20;8.96;95.86
65460;DHT22;52058;49.822;6.754;2023-04-25T06:01:46;9.00;96.75
65460;DHT22;52058;49.822;6.754;2023-04-25T06:04:13;9.03;96.47
65460;DHT22;52058;49.822;6.754;2023-04-25T06:06:39;9.04;96.69
65460;DHT22;52058;49.822;6.754;2023-04-25T06:09:06;9.13;96.70
65460;DHT22;52058;49.822;6.754;2023-04-25T06:11:32;9.06;95.59
65460;DHT22;52058;49.822;6.754;2023-04-25T06:14:00;9.10;94.77
65460;DHT22;52058;49.822;6.754;2023-04-25T06:16:27;9.17;95.41
65460;DHT22;52058;49.822;6.754;2023-04-25T06:18:53;9.16;91.97
65460;DHT22;52058;49.822;6.754;2023-04-25T06:21:20;9.17;92.29
65460;DHT22;52058;49.822;6.754;2023-04-25T06:23:46;9.24;90.24
65460;DHT22;52058;49.822;6.754;2023-04-25T06:26:13;9.35;90.03
65460;DHT22;52058;49.822;6.754;2023-04-25T06:28:40;9.32;88.69
65460;DHT22;52058;49.822;6.754;2023-04-25T06:31:08;9.37;90.02
65460;DHT22;52058;49.822;6.754;2023-04-25T06:33:34;9.42;90.53
65460;DHT22;52058;49.822;6.754;2023-04-25T06:36:01;9.40;90.51
65460;DHT22;52058;49.822;6.754;2023-04-25T06:38:27;9.52;88.35
65460;DHT22;52058;49.822;6.754;2023-04-25T06:40:54;9.59;87.74
65460;DHT22;52058;49.822;6.754;2023-04-25T06:43:20;9.77;87.75
65460;DHT22;52058;49.822;6.754;2023-04-25T06:45:47;9.79;87.40
65460;DHT22;52058;49.822;6.754;2023-04-25T06:48:15;9.82;88.58
65460;DHT22;52058;49.822;6.754;2023-04-25T06:50:42;9.67;86.61
65460;DHT22;52058;49.822;6.754;2023-04-25T06:53:08;9.54;85.72
65460;DHT22;52058;49.822;6.754;2023-04-25T06:55:36;9.44;88.84
65460;DHT22;52058;49.822;6.754;2023-04-25T06:58:03;9.47;87.47
65460;DHT22;52058;49.822;6.754;2023-04-25T07:00:29;9.41;87.65
65460;DHT22;52058;49.822;6.754;2023-04-25T07:02:57;9.57;88.42
65460;DHT22;52058;49.822;6.754;2023-04-25T07:05:25;9.54;86.81
65460;DHT22;52058;49.822;6.754;2023-04-25T07:07:51;9.48;85.09
65460;DHT22;52058;49.822;6.754;2023-04-25T07:10:18;9.37;85.45
65460;DHT22;52058;49.822;6.754;2023-04-25T07:12:46;9.31;86.57
65460;DHT22;52058;49.822;6.754;2023-04-25T07:15:13;9.20;86.82
65460;DHT22;52058;49.822;6.754;2023-04-25T07:17:39;9.17;86.07
65460;DHT22;52058;49.822;6.754;2023-04-25T07:20:07;9.04;86.89
65460;DHT22;52058;49.822;6.754;2023-04-25T07:22:36;9.09;87.60
65460;DHT22;52058;49.822;6.754;2023-04-25T07:25:03;9.20;88.12
65460;DHT22;52058;49.822;6.754;2023-04-25T07:27:30;9.10;88.11
65460;DHT22;52058;49.822;6.754;2023-04-25T07:29:57;9.07;86.57
65460;DHT22;52058;49.822;6.754;2023-04-25T07:32:27;9.09;87.00
65460;DHT22;52058;49.822;6.754;2023-04-25T07:34:53;9.09;86.66
65460;DHT22;52058;49.822;6.754;2023-04-25T07:37:20;9.02;86.89
65460;DHT22;52058;49.822;6.754;2023-04-25T07:39:48;8.94;88.43
65460;DHT22;52058;49.822;6.754;2023-04-25T07:42:15;8.90;87.24
65460;DHT22;52058;49.822;6.754;2023-04-25T07:44:41;8.92;88.12
65460;DHT22;52058;49.822;6.754;2023-04-25T07:47:08;9.03;89.21
65460;DHT22;52058;49.822;6.754;2023-04-25T07:49:36;8.99;87.66
65460;DHT22;52058;49.822;6.754;2023-04-25T07:52:04;8.90;88.41
65460;DHT22;52058;49.822;6.754;2023-04-25T07:54:31;8.97;88.54
65460;DHT22;52058;49.822;6.754;2023-04-25T07:56:59;8.93;85.17
65460;DHT22;52058;49.822;6.754;2023-04-25T07:59:26;9.04;85.41
65460;DHT22;52058;49.822;6.754;2023-04-25T08:01:52;9.02;85.95
65460;DHT22;52058;49.822;6.754;2023-04-25T08:04:19;8.97;85.67
65460;DHT22;52058;49.822;6.754;2023-04-25T08:06:46;9.14;85.78
65460;DHT22;52058;49.822;6.754;2023-04-25T08:09:13;9.38;85.63
65460;DHT22;52058;49.822;6.754;2023-04-25T08:11:40;9.21;83.30
65460;DHT22;52058;49.822;6.754;2023-04-25T08:14:08;9.55;82.53
65460;DHT22;52058;49.822;6.754;2023-04-25T08:16:35;9.54;83.76
65460;DHT22;52058;49.822;6.754;2023-04-25T08:19:02;9.79;84.30
65460;DHT22;52058;49.822;6.754;2023-04-25T08:21:29;10.02;82.05
65460;DHT22;52058;49.822;6.754;2023-04-25T08:23:55;10.13;81.03
65460;DHT22;52058;49.822;6.754;2023-04-25T08:26:23;10.08;82.56
65460;DHT22;52058;49.822;6.754;2023-04-25T08:28:50;10.14;80.68
65460;DHT22;52058;49.822;6.754;2023-04-25T08:31:18;10.23;80.82
65460;DHT22;52058;49.822;6.754;2023-04-25T08:33:45;10.05;80.34
65460;DHT22;52058;49.822;6.754;2023-04-25T08:36:11;10.12;79.57
65460;DHT22;52058;49.822;6.754;2023-04-25T08:38:38;9.96;80.52
65460;DHT22;52058;49.822;6.754;2023-04-25T08:41:05;9.92;80.52
65460;DHT22;52058;49.822;6.754;2023-04-25T08:43:33;9.96;80.31
65460;DHT22;52058;49.822;6.754;2023-04-25T08:46:01;10.13;80.39
65460;DHT22;52058;49.822;6.754;2023-04-25T08:48:32;10.17;80.03
65460;DHT22;52058;49.822;6.754;2023-04-25T08:51:01;10.08;78.48
65460;DHT22;52058;49.822;6.754;2023-04-25T08:53:30;10.14;78.27
65460;DHT22;52058;49.822;6.754;2023-04-25T08:55:58;10.61;78.94
65460;DHT22;52058;49.822;6.754;2023-04-25T08:58:27;10.72;78.25
65460;DHT22;52058;49.822;6.754;2023-04-25T09:00:54;11.12;76.06
65460;DHT22;52058;49.822;6.754;2023-04-25T09:03:20;11.66;76.68
65460;DHT22;52058;49.822;6.754;2023-04-25T09:05:49;11.93;75.09
65460;DHT22;52058;49.822;6.754;2023-04-25T09:08:15;12.08;74.70
65460;DHT22;52058;49.822;6.754;2023-04-25T09:10:42;11.97;74.00
65460;DHT22;52058;49.822;6.754;2023-04-25T09:13:11;12.08;73.95
65460;DHT22;52058;49.822;6.754;2023-04-25T09:15:48;11.73;73.91
65460;DHT22;52058;49.822;6.754;2023-04-25T09:18:22;11.77;76.22
65460;DHT22;52058;49.822;6.754;2023-04-25T09:20:51;11.40;76.00
65460;DHT22;52058;49.822;6.754;2023-04-25T09:23:19;11.33;75.39
65460;DHT22;52058;49.822;6.754;2023-04-25T09:25:47;11.37;76.38
65460;DHT22;52058;49.822;6.754;2023-04-25T09:28:14;11.02;73.56
65460;DHT22;52058;49.822;6.754;2023-04-25T09:30:41;11.02;75.03
65460;DHT22;52058;49.822;6.754;2023-04-25T09:33:08;11.09;75.29
65460;DHT22;52058;49.822;6.754;2023-04-25T09:35:36;10.89;74.05
65460;DHT22;52058;49.822;6.754;2023-04-25T09:38:09;10.98;75.29
65460;DHT22;52058;49.822;6.754;2023-04-25T09:40:39;11.04;75.71
65460;DHT22;52058;49.822;6.754;2023-04-25T09:43:09;10.92;76.17
65460;DHT22;52058;49.822;6.754;2023-04-25T09:45:41;10.98;75.56
65460;DHT22;52058;49.822;6.754;2023-04-25T09:48:11;11.09;75.70
65460;DHT22;52058;49.822;6.754;2023-04-25T09:50:37;11.09;75.30
65460;DHT22;52058;49.822;6.754;2023-04-25T09:53:05;11.05;74.80
65460;DHT22;52058;49.822;6.754;2023-04-25T09:55:34;10.87;73.62
65460;DHT22;52058;49.822;6.754;2023-04-25T09:58:04;10.74;73.95
65460;DHT22;52058;49.822;6.754;2023-04-25T10:00:32;10.81;75.08
65460;DHT22;52058;49.822;6.754;2023-04-25T10:03:00;10.79;72.66
65460;DHT22;52058;49.822;6.754;2023-04-25T10:05:30;10.92;73.78
65460;DHT22;52058;49.822;6.754;2023-04-25T10:07:58;11.04;71.79
65460;DHT22;52058;49.822;6.754;2023-04-25T10:10:26;11.06;71.08
65460;DHT22;52058;49.822;6.754;2023-04-25T10:12:56;11.04;72.90
65460;DHT22;52058;49.822;6.754;2023-04-25T10:15:23;11.16;73.33
65460;DHT22;52058;49.822;6.754;2023-04-25T10:17:50;11.56;72.37
65460;DHT22;52058;49.822;6.754;2023-04-25T10:20:17;11.95;71.19
65460;DHT22;52058;49.822;6.754;2023-04-25T10:22:45;11.91;69.43
65460;DHT22;52058;49.822;6.754;2023-04-25T10:25:13;12.31;69.09
65460;DHT22;52058;49.822;6.754;2023-04-25T10:27:40;12.50;69.21
65460;DHT22;52058;49.822;6.754;2023-04-25T10:30:11;12.93;68.54
65460;DHT22;52058;49.822;6.754;2023-04-25T10:32:41;13.37;68.33
65460;DHT22;52058;49.822;6.754;2023-04-25T10:35:13;13.25;66.12
65460;DHT22;52058;49.822;6.754;2023-04-25T10:37:58;13.00;65.54
65460;DHT22;52058;49.822;6.754;2023-04-25T10:40:25;12.86;66.83
65460;DHT22;52058;49.822;6.754;2023-04-25T10:42:52;12.32;65.86
65460;DHT22;52058;49.822;6.754;2023-04-25T10:45:20;12.31;66.87
65460;DHT22;52058;49.822;6.754;2023-04-25T10:47:47;12.18;66.69
65460;DHT22;52058;49.822;6.754;2023-04-25T10:50:15;12.46;66.62
65460;DHT22;52058;49.822;6.754;2023-04-25T10:52:42;12.79;65.24
65460;DHT22;52058;49.822;6.754;2023-04-25T10:55:09;12.89;65.17
65460;DHT22;52058;49.822;6.754;2023-04-25T10:57:38;13.11;63.04
65460;DHT22;52058;49.822;6.754;2023-04-25T11:00:08;13.02;63.42
65460;DHT22;52058;49.822;6.754;2023-04-25T11:02:45;13.18;63.00
65460;DHT22;52058;49.822;6.754;2023-04-25T11:05:20;13.57;65.11
65460;DHT22;52058;49.822;6.754;2023-04-25T11:07:49;13.82;63.61
65460;DHT22;52058;49.822;6.754;2023-04-25T11:10:17;13.98;64.01
65460;DHT22;52058;49.822;6.754;2023-04-25T11:12:45;13.90;64.63
65460;DHT22;52058;49.822;6.754;2023-04-25T11:15:11;13.86;62.12
65460;DHT22;52058;49.822;6.754;2023-04-25T11:17:39;13.83;63.64
65460;DHT22;52058;49.822;6.754;2023-04-25T11:20:08;13.71;62.31
65460;DHT22;52058;49.822;6.754;2023-04-25T11:22:37;13.98;63.29
65460;DHT22;52058;49.822;6.754;2023-04-25T11:25:05;14.20;61.47
65460;DHT22;52058;49.822;6.754;2023-04-25T11:27:32;14.31;63.21
65460;DHT22;52058;49.822;6.754;2023-04-25T11:30:09;13.92;61.13
65460;DHT22;52058;49.822;6.754;2023-04-25T11:32:36;13.99;61.65
65460;DHT22;52058;49.822;6.754;2023-04-25T11:35:04;13.86;61.09
65460;DHT22;52058;49.822;6.754;2023-04-25T11:37:32;14.12;62.39
65460;DHT22;52058;49.822;6.754;2023-04-25T11:39:59;14.42;60.89
65460;DHT22;52058;49.822;6.754;2023-04-25T11:42:26;14.34;60.75
65460;DHT22;52058;49.822;6.754;2023-04-25T11:44:52;14.05;61.16
65460;DHT22;52058;49.822;6.754;2023-04-25T11:47:19;14.24;59.80
65460;DHT22;52058;49.822;6.754;2023-04-25T11:49:46;14.23;59.76
65460;DHT22;52058;49.822;6.754;2023-04-25T11:52:12;14.23;59.52
65460;DHT22;52058;49.822;6.754;2023-04-25T11:54:40;14.33;60.10
65460;DHT22;52058;49.822;6.754;2023-04-25T11:57:07;13.66;61.51
65460;DHT22;52058;49.822;6.754;2023-04-25T11:59:34;13.21;62.07
65460;DHT22;52058;49.822;6.754;2023-04-25T12:02:00;12.56;64.75
65460;DHT22;52058;49.822;6.754;2023-04-25T12:04:30;12.15;65.56
65460;DHT22;52058;49.822;6.754;2023-04-25T12:06:57;12.02;64.96
65460;DHT22;52058;49.822;6.754;2023-04-25T12:09:29;12.26;65.96
65460;DHT22;52058;49.822;6.754;2023-04-25T12:11:58;12.89;64.08
65460;DHT22;52058;49.822;6.754;2023-04-25T12:14:29;13.58;62.89
65460;DHT22;52058;49.822;6.754;2023-04-25T12:16:58;13.68;60.97
65460;DHT22;52058;49.822;6.754;2023-04-25T12:19:26;14.06;62.03
65460;DHT22;52058;49.822;6.754;2023-04-25T12:21:58;14.45;61.91
65460;DHT22;52058;49.822;6.754;2023-04-25T12:24:25;14.33;60.06
65460;DHT22;52058;49.822;6.754;2023-04-25T12:26:54;14.38;58.76
65460;DHT22;52058;49.822;6.754;2023-04-25T12:29:30;14.71;58.61
65460;DHT22;52058;49.822;6.754;2023-04-25T12:31:57;14.52;57.89
65460;DHT22;52058;49.822;6.754;2023-04-25T12:34:26;14.60;57.70
65460;DHT22;52058;49.822;6.754;2023-04-25T12:36:54;14.65;57.43
65460;DHT22;52058;49.822;6.754;2023-04-25T12:39:24;14.44;57.09
65460;DHT22;52058;49.822;6.754;2023-04-25T12:41:51;14.29;57.69
65460;DHT22;52058;49.822;6.754;2023-04-25T12:44:19;14.14;58.07
65460;DHT22;52058;49.822;6.754;2023-04-25T12:46:47;14.30;57.47
65460;DHT22;52058;49.822;6.754;2023-04-25T12:49:15;14.08;57.93
65460;DHT22;52058;49.822;6.754;2023-04-25T12:51:42;13.98;57.79
65460;DHT22;52058;49.822;6.754;2023-04-25T12:54:08;13.73;59.14
65460;DHT22;52058;49.822;6.754;2023-04-25T12:56:35;13.37;59.21
65460;DHT22;52058;49.822;6.754;2023-04-25T12:59:02;12.86;60.13
65460;DHT22;52058;49.822;6.754;2023-04-25T13:01:29;12.48;60.75
65460;DHT22;52058;49.822;6.754;2023-04-25T13:03:58;12.36;61.38
65460;DHT22;52058;49.822;6.754;2023-04-25T13:06:25;12.38;62.01
65460;DHT22;52058;49.822;6.754;2023-04-25T13:08:51;12.14;62.90
65460;DHT22;52058;49.822;6.754;2023-04-25T13:11:18;12.50;61.45
65460;DHT22;52058;49.822;6.754;2023-04-25T13:13:47;12.79;61.16
65460;DHT22;52058;49.822;6.754;2023-04-25T13:16:14;13.11;61.13
65460;DHT22;52058;49.822;6.754;2023-04-25T13:18:40;14.52;57.55
65460;DHT22;52058;49.822;6.754;2023-04-25T13:21:09;15.39;55.65
65460;DHT22;52058;49.822;6.754;2023-04-25T13:23:37;16.87;52.19
65460;DHT22;52058;49.822;6.754;2023-04-25T13:26:04;17.56;49.96
65460;DHT22;52058;49.822;6.754;2023-04-25T13:28:30;16.86;50.27
65460;DHT22;52058;49.822;6.754;2023-04-25T13:30:57;17.11;51.78
65460;DHT22;52058;49.822;6.754;2023-04-25T13:33:24;18.57;48.62
65460;DHT22;52058;49.822;6.754;2023-04-25T13:35:51;20.15;46.18
65460;DHT22;52058;49.822;6.754;2023-04-25T13:38:22;18.43;47.16
65460;DHT22;52058;49.822;6.754;2023-04-25T13:40:50;18.81;45.75
65460;DHT22;52058;49.822;6.754;2023-04-25T13:43:19;19.19;45.87
65460;DHT22;52058;49.822;6.754;2023-04-25T13:45:47;18.92;45.61
65460;DHT22;52058;49.822;6.754;2023-04-25T13:48:13;17.87;48.47
65460;DHT22;52058;49.822;6.754;2023-04-25T13:50:40;16.73;47.25
65460;DHT22;52058;49.822;6.754;2023-04-25T13:53:07;15.57;50.28
65460;DHT22;52058;49.822;6.754;2023-04-25T13:55:36;15.00;51.22
65460;DHT22;52058;49.822;6.754;2023-04-25T13:58:04;14.05;52.40
65460;DHT22;52058;49.822;6.754;2023-04-25T14:00:34;13.55;54.86
65460;DHT22;52058;49.822;6.754;2023-04-25T14:03:01;13.11;55.04
65460;DHT22;52058;49.822;6.754;2023-04-25T14:05:30;12.75;56.17
65460;DHT22;52058;49.822;6.754;2023-04-25T14:07:57;12.49;57.41
65460;DHT22;52058;49.822;6.754;2023-04-25T14:10:23;12.46;58.30
65460;DHT22;52058;49.822;6.754;2023-04-25T14:12:51;12.44;58.00
65460;DHT22;52058;49.822;6.754;2023-04-25T14:15:18;12.67;58.33
65460;DHT22;52058;49.822;6.754;2023-04-25T14:17:45;12.84;57.13
65460;DHT22;52058;49.822;6.754;2023-04-25T14:20:13;13.02;57.34
65460;DHT22;52058;49.822;6.754;2023-04-25T14:22:40;13.04;55.57
65460;DHT22;52058;49.822;6.754;2023-04-25T14:25:08;13.25;55.01
65460;DHT22;52058;49.822;6.754;2023-04-25T14:27:35;13.50;54.64
65460;DHT22;52058;49.822;6.754;2023-04-25T14:30:04;13.93;55.04
65460;DHT22;52058;49.822;6.754;2023-04-25T14:32:31;13.96;54.34
65460;DHT22;52058;49.822;6.754;2023-04-25T14:34:58;14.10;53.02
65460;DHT22;52058;49.822;6.754;2023-04-25T14:37:25;14.05;53.79
65460;DHT22;52058;49.822;6.754;2023-04-25T14:39:51;13.65;54.23
65460;DHT22;52058;49.822;6.754;2023-04-25T14:42:19;13.14;54.42
65460;DHT22;52058;49.822;6.754;2023-04-25T14:44:46;13.40;55.41
65460;DHT22;52058;49.822;6.754;2023-04-25T14:47:14;13.96;55.75
65460;DHT22;52058;49.822;6.754;2023-04-25T14:49:41;14.13;55.21
65460;DHT22;52058;49.822;6.754;2023-04-25T14:52:07;14.64;53.86
65460;DHT22;52058;49.822;6.754;2023-04-25T14:54:34;17.92;46.68
65460;DHT22;52058;49.822;6.754;2023-04-25T14:57:01;20.60;43.52
65460;DHT22;52058;49.822;6.754;2023-04-25T14:59:28;21.34;40.63
65460;DHT22;52058;49.822;6.754;2023-04-25T15:02:03;23.01;38.04
65460;DHT22;52058;49.822;6.754;2023-04-25T15:04:31;23.36;39.77
65460;DHT22;52058;49.822;6.754;2023-04-25T15:06:57;21.06;41.40
65460;DHT22;52058;49.822;6.754;2023-04-25T15:09:24;19.67;42.68
65460;DHT22;52058;49.822;6.754;2023-04-25T15:11:51;18.37;44.74
65460;DHT22;52058;49.822;6.754;2023-04-25T15:14:17;17.48;43.16
65460;DHT22;52058;49.822;6.754;2023-04-25T15:16:44;16.55;44.56
65460;DHT22;52058;49.822;6.754;2023-04-25T15:19:11;15.96;46.62
65460;DHT22;52058;49.822;6.754;2023-04-25T15:21:39;15.54;48.10
65460;DHT22;52058;49.822;6.754;2023-04-25T15:24:06;15.63;50.18
65460;DHT22;52058;49.822;6.754;2023-04-25T15:26:33;14.89;48.93
65460;DHT22;52058;49.822;6.754;2023-04-25T15:28:59;14.74;50.19
65460;DHT22;52058;49.822;6.754;2023-04-25T15:31:26;14.20;51.48
65460;DHT22;52058;49.822;6.754;2023-04-25T15:33:53;13.59;53.41
65460;DHT22;52058;49.822;6.754;2023-04-25T15:36:19;13.37;54.17
65460;DHT22;52058;49.822;6.754;2023-04-25T15:38:48;12.77;54.99
65460;DHT22;52058;49.822;6.754;2023-04-25T15:41:15;12.41;56.33